sensor_id;sensor_type;location;lat;lon;timestamp;P1;durP1;ratioP1;P2;durP2;ratioP2
51459;SDS011;37534;39.772;2.718;2023-07-13T00:00:02;16.35;;;9.23;;
51459;SDS011;37534;39.772;2.718;2023-07-13T00:02:34;20.10;;;8.57;;
51459;SDS011;37534;39.772;2.718;2023-07-13T00:04:59;15.90;;;9.10;;
51459;SDS011;37534;39.772;2.718;2023-07-13T00:07:25;14.32;;;8.13;;
51459;SDS011;37534;39.772;2.718;2023-07-13T00:09:51;24.88;;;8.43;;
51459;SDS011;37534;39.772;2.718;2023-07-13T00:12:24;22.65;;;8.60;;
51459;SDS011;37534;39.772;2.718;2023-07-13T00:14:56;16.08;;;8.38;;
51459;SDS011;37534;39.772;2.718;2023-07-13T00:17:23;30.25;;;8.75;;
51459;SDS011;37534;39.772;2.718;2023-07-13T00:19:49;15.23;;;8.18;;
51459;SDS011;37534;39.772;2.718;2023-07-13T00:22:14;16.00;;;6.93;;
51459;SDS011;37534;39.772;2.718;2023-07-13T00:24:40;18.50;;;9.60;;
51459;SDS011;37534;39.772;2.718;2023-07-13T00:27:07;23.30;;;8.50;;
51459;SDS011;37534;39.772;2.718;2023-07-13T00:29:37;21.52;;;9.73;;
51459;SDS011;37534;39.772;2.718;2023-07-13T00:32:03;19.30;;;9.15;;
51459;SDS011;37534;39.772;2.718;2023-07-13T00:34:30;21.13;;;8.68;;
51459;SDS011;37534;39.772;2.718;2023-07-13T00:36:56;24.95;;;9.07;;
51459;SDS011;37534;39.772;2.718;2023-07-13T00:39:21;24.40;;;9.68;;
51459;SDS011;37534;39.772;2.718;2023-07-13T00:41:48;24.05;;;9.30;;
51459;SDS011;37534;39.772;2.718;2023-07-13T00:44:14;15.55;;;7.30;;
51459;SDS011;37534;39.772;2.718;2023-07-13T00:46:41;21.35;;;9.43;;
51459;SDS011;37534;39.772;2.718;2023-07-13T00:49:07;17.92;;;9.20;;
51459;SDS011;37534;39.772;2.718;2023-07-13T00:51:41;17.75;;;9.18;;
51459;SDS011;37534;39.772;2.718;2023-07-13T00:54:16;28.88;;;8.27;;
51459;SDS011;37534;39.772;2.718;2023-07-13T00:56:47;20.83;;;8.68;;
51459;SDS011;37534;39.772;2.718;2023-07-13T00:59:16;15.07;;;7.07;;
51459;SDS011;37534;39.772;2.718;2023-07-13T01:01:44;18.88;;;8.88;;
51459;SDS011;37534;39.772;2.718;2023-07-13T01:04:09;16.30;;;8.85;;
51459;SDS011;37534;39.772;2.718;2023-07-13T01:06:36;17.27;;;8.02;;
51459;SDS011;37534;39.772;2.718;2023-07-13T01:09:03;27.58;;;9.70;;
51459;SDS011;37534;39.772;2.718;2023-07-13T01:11:29;18.30;;;8.88;;
51459;SDS011;37534;39.772;2.718;2023-07-13T01:13:55;19.60;;;8.45;;
51459;SDS011;37534;39.772;2.718;2023-07-13T01:16:25;13.60;;;7.47;;
51459;SDS011;37534;39.772;2.718;2023-07-13T01:18:52;16.88;;;8.63;;
51459;SDS011;37534;39.772;2.718;2023-07-13T01:21:19;23.48;;;8.25;;
51459;SDS011;37534;39.772;2.718;2023-07-13T01:23:45;17.58;;;8.23;;
51459;SDS011;37534;39.772;2.718;2023-07-13T01:26:10;13.27;;;6.80;;
51459;SDS011;37534;39.772;2.718;2023-07-13T01:28:37;17.95;;;7.68;;
51459;SDS011;37534;39.772;2.718;2023-07-13T01:31:03;19.73;;;9.10;;
51459;SDS011;37534;39.772;2.718;2023-07-13T01:33:29;15.15;;;8.02;;
51459;SDS011;37534;39.772;2.718;2023-07-13T01:35:55;31.13;;;8.95;;
51459;SDS011;37534;39.772;2.718;2023-07-13T01:38:22;21.45;;;8.20;;
51459;SDS011;37534;39.772;2.718;2023-07-13T01:40:50;12.43;;;7.68;;
51459;SDS011;37534;39.772;2.718;2023-07-13T01:43:16;28.15;;;9.20;;
51459;SDS011;37534;39.772;2.718;2023-07-13T01:45:42;32.47;;;8.52;;
51459;SDS011;37534;39.772;2.718;2023-07-13T01:48:09;27.90;;;10.35;;
51459;SDS011;37534;39.772;2.718;2023-07-13T01:50:35;14.15;;;8.35;;
51459;SDS011;37534;39.772;2.718;2023-07-13T01:53:01;24.15;;;9.32;;
51459;SDS011;37534;39.772;2.718;2023-07-13T01:55:27;22.63;;;9.52;;
51459;SDS011;37534;39.772;2.718;2023-07-13T01:57:53;31.75;;;9.82;;
51459;SDS011;37534;39.772;2.718;2023-07-13T02:00:19;17.67;;;8.60;;
51459;SDS011;37534;39.772;2.718;2023-07-13T02:02:45;17.55;;;8.93;;
51459;SDS011;37534;39.772;2.718;2023-07-13T02:05:10;17.48;;;8.70;;
51459;SDS011;37534;39.772;2.718;2023-07-13T02:07:37;21.15;;;9.25;;
51459;SDS011;37534;39.772;2.718;2023-07-13T02:10:03;16.90;;;8.05;;
51459;SDS011;37534;39.772;2.718;2023-07-13T02:12:30;22.33;;;8.77;;
51459;SDS011;37534;39.772;2.718;2023-07-13T02:14:55;16.20;;;7.95;;
51459;SDS011;37534;39.772;2.718;2023-07-13T02:17:21;24.60;;;9.50;;
51459;SDS011;37534;39.772;2.718;2023-07-13T02:19:46;21.20;;;9.30;;
51459;SDS011;37534;39.772;2.718;2023-07-13T02:22:12;16.13;;;8.35;;
51459;SDS011;37534;39.772;2.718;2023-07-13T02:24:38;19.35;;;8.02;;
51459;SDS011;37534;39.772;2.718;2023-07-13T02:27:04;13.27;;;7.70;;
51459;SDS011;37534;39.772;2.718;2023-07-13T02:29:30;20.70;;;8.52;;
51459;SDS011;37534;39.772;2.718;2023-07-13T02:31:55;13.75;;;7.85;;
51459;SDS011;37534;39.772;2.718;2023-07-13T02:34:21;28.50;;;9.13;;
51459;SDS011;37534;39.772;2.718;2023-07-13T02:36:46;12.70;;;7.30;;
51459;SDS011;37534;39.772;2.718;2023-07-13T02:39:13;27.00;;;8.98;;
51459;SDS011;37534;39.772;2.718;2023-07-13T02:41:39;16.73;;;7.93;;
51459;SDS011;37534;39.772;2.718;2023-07-13T02:44:04;20.42;;;8.95;;
51459;SDS011;37534;39.772;2.718;2023-07-13T02:46:31;20.10;;;8.65;;
51459;SDS011;37534;39.772;2.718;2023-07-13T02:48:57;20.83;;;9.10;;
51459;SDS011;37534;39.772;2.718;2023-07-13T02:51:22;13.63;;;7.60;;
51459;SDS011;37534;39.772;2.718;2023-07-13T02:53:48;18.88;;;8.57;;
51459;SDS011;37534;39.772;2.718;2023-07-13T02:56:13;13.95;;;8.25;;
51459;SDS011;37534;39.772;2.718;2023-07-13T02:58:39;14.30;;;8.13;;
51459;SDS011;37534;39.772;2.718;2023-07-13T03:01:06;16.75;;;8.40;;
51459;SDS011;37534;39.772;2.718;2023-07-13T03:03:34;23.33;;;8.57;;
51459;SDS011;37534;39.772;2.718;2023-07-13T03:06:00;17.60;;;8.88;;
51459;SDS011;37534;39.772;2.718;2023-07-13T03:08:27;22.60;;;9.30;;
51459;SDS011;37534;39.772;2.718;2023-07-13T03:11:06;16.13;;;8.90;;
51459;SDS011;37534;39.772;2.718;2023-07-13T03:13:33;18.50;;;8.45;;
51459;SDS011;37534;39.772;2.718;2023-07-13T03:15:59;33.03;;;9.00;;
51459;SDS011;37534;39.772;2.718;2023-07-13T03:18:28;14.40;;;8.40;;
51459;SDS011;37534;39.772;2.718;2023-07-13T03:20:54;16.42;;;9.55;;
51459;SDS011;37534;39.772;2.718;2023-07-13T03:23:20;20.42;;;9.35;;
51459;SDS011;37534;39.772;2.718;2023-07-13T03:25:47;17.63;;;9.02;;
51459;SDS011;37534;39.772;2.718;2023-07-13T03:28:13;12.68;;;8.20;;
51459;SDS011;37534;39.772;2.718;2023-07-13T03:30:40;29.02;;;9.43;;
51459;SDS011;37534;39.772;2.718;2023-07-13T03:33:06;12.77;;;8.73;;
51459;SDS011;37534;39.772;2.718;2023-07-13T03:35:32;13.27;;;8.95;;
51459;SDS011;37534;39.772;2.718;2023-07-13T03:37:58;16.85;;;9.27;;
51459;SDS011;37534;39.772;2.718;2023-07-13T03:40:25;14.43;;;8.40;;
51459;SDS011;37534;39.772;2.718;2023-07-13T03:42:51;16.35;;;9.00;;
51459;SDS011;37534;39.772;2.718;2023-07-13T03:45:17;30.30;;;10.75;;
51459;SDS011;37534;39.772;2.718;2023-07-13T03:47:43;32.05;;;10.48;;
51459;SDS011;37534;39.772;2.718;2023-07-13T03:50:09;19.83;;;9.13;;
51459;SDS011;37534;39.772;2.718;2023-07-13T03:52:34;26.48;;;10.27;;
51459;SDS011;37534;39.772;2.718;2023-07-13T03:55:00;17.25;;;8.82;;
51459;SDS011;37534;39.772;2.718;2023-07-13T03:57:26;24.27;;;9.40;;
51459;SDS011;37534;39.772;2.718;2023-07-13T03:59:51;17.42;;;9.00;;
51459;SDS011;37534;39.772;2.718;2023-07-13T04:02:17;17.40;;;9.63;;
51459;SDS011;37534;39.772;2.718;2023-07-13T04:04:43;17.00;;;11.05;;
51459;SDS011;37534;39.772;2.718;2023-07-13T04:07:09;20.30;;;9.27;;
51459;SDS011;37534;39.772;2.718;2023-07-13T04:09:35;17.00;;;9.48;;
51459;SDS011;37534;39.772;2.718;2023-07-13T04:12:01;24.00;;;11.05;;
51459;SDS011;37534;39.772;2.718;2023-07-13T04:14:26;21.13;;;9.13;;
51459;SDS011;37534;39.772;2.718;2023-07-13T04:16:52;24.08;;;10.07;;
51459;SDS011;37534;39.772;2.718;2023-07-13T04:19:20;29.98;;;10.57;;
51459;SDS011;37534;39.772;2.718;2023-07-13T04:21:45;19.58;;;9.50;;
51459;SDS011;37534;39.772;2.718;2023-07-13T04:24:11;14.73;;;8.07;;
51459;SDS011;37534;39.772;2.718;2023-07-13T04:26:37;13.98;;;7.95;;
51459;SDS011;37534;39.772;2.718;2023-07-13T04:29:03;18.75;;;8.48;;
51459;SDS011;37534;39.772;2.718;2023-07-13T04:31:30;19.65;;;9.52;;
51459;SDS011;37534;39.772;2.718;2023-07-13T04:33:56;25.67;;;8.63;;
51459;SDS011;37534;39.772;2.718;2023-07-13T04:36:22;21.85;;;10.25;;
51459;SDS011;37534;39.772;2.718;2023-07-13T04:38:47;16.38;;;8.98;;
51459;SDS011;37534;39.772;2.718;2023-07-13T04:41:14;20.33;;;8.63;;
51459;SDS011;37534;39.772;2.718;2023-07-13T04:43:40;18.90;;;8.70;;
51459;SDS011;37534;39.772;2.718;2023-07-13T04:46:07;45.35;;;10.65;;
51459;SDS011;37534;39.772;2.718;2023-07-13T04:48:35;21.27;;;9.38;;
51459;SDS011;37534;39.772;2.718;2023-07-13T04:51:01;19.05;;;10.55;;
51459;SDS011;37534;39.772;2.718;2023-07-13T04:53:27;19.65;;;9.88;;
51459;SDS011;37534;39.772;2.718;2023-07-13T04:55:53;18.50;;;11.45;;
51459;SDS011;37534;39.772;2.718;2023-07-13T04:58:19;18.73;;;9.80;;
51459;SDS011;37534;39.772;2.718;2023-07-13T05:00:46;18.92;;;10.05;;
51459;SDS011;37534;39.772;2.718;2023-07-13T05:03:11;28.98;;;9.70;;
51459;SDS011;37534;39.772;2.718;2023-07-13T05:05:37;16.52;;;9.20;;
51459;SDS011;37534;39.772;2.718;2023-07-13T05:08:03;10.55;;;7.45;;
51459;SDS011;37534;39.772;2.718;2023-07-13T05:10:29;18.25;;;9.57;;
51459;SDS011;37534;39.772;2.718;2023-07-13T05:12:54;23.55;;;9.40;;
51459;SDS011;37534;39.772;2.718;2023-07-13T05:15:23;13.55;;;7.95;;
51459;SDS011;37534;39.772;2.718;2023-07-13T05:17:49;17.00;;;7.55;;
51459;SDS011;37534;39.772;2.718;2023-07-13T05:20:15;22.63;;;9.13;;
51459;SDS011;37534;39.772;2.718;2023-07-13T05:22:42;17.80;;;8.05;;
51459;SDS011;37534;39.772;2.718;2023-07-13T05:25:08;20.60;;;9.50;;
51459;SDS011;37534;39.772;2.718;2023-07-13T05:27:34;18.08;;;9.85;;
51459;SDS011;37534;39.772;2.718;2023-07-13T05:30:01;19.55;;;8.27;;
51459;SDS011;37534;39.772;2.718;2023-07-13T05:32:28;27.55;;;8.23;;
51459;SDS011;37534;39.772;2.718;2023-07-13T05:34:53;15.80;;;7.22;;
51459;SDS011;37534;39.772;2.718;2023-07-13T05:37:19;22.83;;;8.88;;
51459;SDS011;37534;39.772;2.718;2023-07-13T05:39:44;29.27;;;9.02;;
51459;SDS011;37534;39.772;2.718;2023-07-13T05:42:10;19.52;;;7.82;;
51459;SDS011;37534;39.772;2.718;2023-07-13T05:44:35;9.40;;;5.85;;
51459;SDS011;37534;39.772;2.718;2023-07-13T05:47:01;12.05;;;5.53;;
51459;SDS011;37534;39.772;2.718;2023-07-13T05:49:27;17.20;;;5.75;;
51459;SDS011;37534;39.772;2.718;2023-07-13T05:51:53;15.25;;;5.30;;
51459;SDS011;37534;39.772;2.718;2023-07-13T05:54:18;12.63;;;5.72;;
51459;SDS011;37534;39.772;2.718;2023-07-13T05:56:46;16.83;;;5.53;;
51459;SDS011;37534;39.772;2.718;2023-07-13T05:59:11;13.38;;;6.43;;
51459;SDS011;37534;39.772;2.718;2023-07-13T06:01:37;12.50;;;6.32;;
51459;SDS011;37534;39.772;2.718;2023-07-13T06:04:02;18.13;;;7.55;;
51459;SDS011;37534;39.772;2.718;2023-07-13T06:06:28;19.33;;;7.47;;
51459;SDS011;37534;39.772;2.718;2023-07-13T06:08:54;21.50;;;7.05;;
51459;SDS011;37534;39.772;2.718;2023-07-13T06:11:21;17.80;;;7.70;;
51459;SDS011;37534;39.772;2.718;2023-07-13T06:13:48;20.15;;;7.65;;
51459;SDS011;37534;39.772;2.718;2023-07-13T06:16:14;15.30;;;7.65;;
51459;SDS011;37534;39.772;2.718;2023-07-13T06:18:42;9.43;;;5.88;;
51459;SDS011;37534;39.772;2.718;2023-07-13T06:21:25;18.73;;;7.88;;
51459;SDS011;37534;39.772;2.718;2023-07-13T06:23:52;10.77;;;6.30;;
51459;SDS011;37534;39.772;2.718;2023-07-13T06:26:18;16.45;;;6.40;;
51459;SDS011;37534;39.772;2.718;2023-07-13T06:28:45;11.63;;;6.28;;
51459;SDS011;37534;39.772;2.718;2023-07-13T06:31:12;18.85;;;7.57;;
51459;SDS011;37534;39.772;2.718;2023-07-13T06:33:38;15.30;;;7.88;;
51459;SDS011;37534;39.772;2.718;2023-07-13T06:36:05;36.25;;;9.52;;
51459;SDS011;37534;39.772;2.718;2023-07-13T06:38:33;18.70;;;7.18;;
51459;SDS011;37534;39.772;2.718;2023-07-13T06:40:59;17.73;;;7.40;;
51459;SDS011;37534;39.772;2.718;2023-07-13T06:43:24;13.07;;;7.18;;
51459;SDS011;37534;39.772;2.718;2023-07-13T06:45:51;9.40;;;5.70;;
51459;SDS011;37534;39.772;2.718;2023-07-13T06:48:17;28.42;;;7.55;;
51459;SDS011;37534;39.772;2.718;2023-07-13T06:50:44;12.27;;;5.57;;
51459;SDS011;37534;39.772;2.718;2023-07-13T06:53:11;11.95;;;5.32;;
51459;SDS011;37534;39.772;2.718;2023-07-13T06:55:40;17.48;;;5.72;;
51459;SDS011;37534;39.772;2.718;2023-07-13T06:58:08;9.60;;;5.10;;
51459;SDS011;37534;39.772;2.718;2023-07-13T07:00:34;10.15;;;4.53;;
51459;SDS011;37534;39.772;2.718;2023-07-13T07:02:59;7.68;;;4.63;;
51459;SDS011;37534;39.772;2.718;2023-07-13T07:05:25;13.38;;;4.47;;
51459;SDS011;37534;39.772;2.718;2023-07-13T07:07:52;15.50;;;4.72;;
51459;SDS011;37534;39.772;2.718;2023-07-13T07:10:19;9.73;;;4.25;;
51459;SDS011;37534;39.772;2.718;2023-07-13T07:12:45;17.33;;;5.30;;
51459;SDS011;37534;39.772;2.718;2023-07-13T07:15:11;8.15;;;3.95;;
51459;SDS011;37534;39.772;2.718;2023-07-13T07:17:36;8.18;;;5.00;;
51459;SDS011;37534;39.772;2.718;2023-07-13T07:20:02;9.68;;;4.32;;
51459;SDS011;37534;39.772;2.718;2023-07-13T07:22:29;15.27;;;4.63;;
51459;SDS011;37534;39.772;2.718;2023-07-13T07:24:55;9.40;;;4.10;;
51459;SDS011;37534;39.772;2.718;2023-07-13T07:27:21;11.57;;;4.97;;
51459;SDS011;37534;39.772;2.718;2023-07-13T07:29:46;11.27;;;4.43;;
51459;SDS011;37534;39.772;2.718;2023-07-13T07:32:12;12.55;;;4.22;;
51459;SDS011;37534;39.772;2.718;2023-07-13T07:34:38;7.82;;;3.97;;
51459;SDS011;37534;39.772;2.718;2023-07-13T07:37:03;11.20;;;4.43;;
51459;SDS011;37534;39.772;2.718;2023-07-13T07:39:29;7.85;;;4.03;;
51459;SDS011;37534;39.772;2.718;2023-07-13T07:41:55;11.95;;;5.03;;
51459;SDS011;37534;39.772;2.718;2023-07-13T07:44:21;32.55;;;5.45;;
51459;SDS011;37534;39.772;2.718;2023-07-13T07:46:47;7.90;;;4.22;;
51459;SDS011;37534;39.772;2.718;2023-07-13T07:49:12;7.72;;;4.88;;
51459;SDS011;37534;39.772;2.718;2023-07-13T07:51:38;8.95;;;5.70;;
51459;SDS011;37534;39.772;2.718;2023-07-13T07:54:04;12.50;;;4.35;;
51459;SDS011;37534;39.772;2.718;2023-07-13T07:56:30;8.30;;;3.97;;
51459;SDS011;37534;39.772;2.718;2023-07-13T07:58:56;16.52;;;4.20;;
51459;SDS011;37534;39.772;2.718;2023-07-13T08:01:22;11.82;;;4.18;;
51459;SDS011;37534;39.772;2.718;2023-07-13T08:03:48;8.05;;;3.45;;
51459;SDS011;37534;39.772;2.718;2023-07-13T08:06:13;17.77;;;4.47;;
51459;SDS011;37534;39.772;2.718;2023-07-13T08:08:39;13.13;;;4.55;;
51459;SDS011;37534;39.772;2.718;2023-07-13T08:11:06;14.05;;;3.65;;
51459;SDS011;37534;39.772;2.718;2023-07-13T08:13:33;6.63;;;3.22;;
51459;SDS011;37534;39.772;2.718;2023-07-13T08:15:59;9.10;;;3.63;;
51459;SDS011;37534;39.772;2.718;2023-07-13T08:18:24;7.25;;;3.20;;
51459;SDS011;37534;39.772;2.718;2023-07-13T08:20:50;5.88;;;3.88;;
51459;SDS011;37534;39.772;2.718;2023-07-13T08:23:16;13.15;;;3.65;;
51459;SDS011;37534;39.772;2.718;2023-07-13T08:25:42;7.57;;;3.97;;
51459;SDS011;37534;39.772;2.718;2023-07-13T08:28:07;6.13;;;3.25;;
51459;SDS011;37534;39.772;2.718;2023-07-13T08:30:33;21.95;;;3.45;;
51459;SDS011;37534;39.772;2.718;2023-07-13T08:32:59;6.00;;;3.20;;
51459;SDS011;37534;39.772;2.718;2023-07-13T08:35:25;12.55;;;3.15;;
51459;SDS011;37534;39.772;2.718;2023-07-13T08:37:51;13.13;;;3.60;;
51459;SDS011;37534;39.772;2.718;2023-07-13T08:40:17;7.90;;;3.47;;
51459;SDS011;37534;39.772;2.718;2023-07-13T08:50:59;4.75;;;2.85;;
51459;SDS011;37534;39.772;2.718;2023-07-13T08:53:39;5.93;;;3.28;;
51459;SDS011;37534;39.772;2.718;2023-07-13T08:56:27;7.03;;;3.13;;
51459;SDS011;37534;39.772;2.718;2023-07-13T08:59:16;6.68;;;2.88;;
51459;SDS011;37534;39.772;2.718;2023-07-13T09:02:07;7.53;;;3.00;;
51459;SDS011;37534;39.772;2.718;2023-07-13T09:04:54;3.63;;;2.37;;
51459;SDS011;37534;39.772;2.718;2023-07-13T09:15:35;3.58;;;2.45;;
51459;SDS011;37534;39.772;2.718;2023-07-13T09:18:08;5.93;;;2.90;;
51459;SDS011;37534;39.772;2.718;2023-07-13T09:20:42;5.30;;;2.22;;
51459;SDS011;37534;39.772;2.718;2023-07-13T09:23:12;15.93;;;2.90;;
51459;SDS011;37534;39.772;2.718;2023-07-13T09:25:43;7.15;;;2.25;;
51459;SDS011;37534;39.772;2.718;2023-07-13T09:33:16;7.03;;;2.47;;
51459;SDS011;37534;39.772;2.718;2023-07-13T09:35:42;3.85;;;2.70;;
51459;SDS011;37534;39.772;2.718;2023-07-13T09:38:11;5.15;;;2.35;;
51459;SDS011;37534;39.772;2.718;2023-07-13T09:46:34;3.88;;;1.83;;
51459;SDS011;37534;39.772;2.718;2023-07-13T09:49:00;8.50;;;3.47;;
51459;SDS011;37534;39.772;2.718;2023-07-13T09:51:25;4.47;;;2.33;;
51459;SDS011;37534;39.772;2.718;2023-07-13T09:53:51;3.47;;;2.75;;
51459;SDS011;37534;39.772;2.718;2023-07-13T09:56:23;2.92;;;2.25;;
51459;SDS011;37534;39.772;2.718;2023-07-13T09:58:52;4.72;;;2.38;;
51459;SDS011;37534;39.772;2.718;2023-07-13T10:01:37;2.78;;;1.98;;
51459;SDS011;37534;39.772;2.718;2023-07-13T10:04:10;4.82;;;1.92;;
51459;SDS011;37534;39.772;2.718;2023-07-13T10:06:40;3.22;;;2.30;;
51459;SDS011;37534;39.772;2.718;2023-07-13T10:09:08;3.58;;;2.05;;
51459;SDS011;37534;39.772;2.718;2023-07-13T10:11:34;2.65;;;1.90;;
51459;SDS011;37534;39.772;2.718;2023-07-13T10:14:03;5.22;;;2.05;;
51459;SDS011;37534;39.772;2.718;2023-07-13T10:16:34;8.55;;;1.98;;
51459;SDS011;37534;39.772;2.718;2023-07-13T10:19:05;3.40;;;1.88;;
51459;SDS011;37534;39.772;2.718;2023-07-13T10:21:59;6.47;;;2.05;;
51459;SDS011;37534;39.772;2.718;2023-07-13T10:24:26;4.15;;;2.15;;
51459;SDS011;37534;39.772;2.718;2023-07-13T10:27:18;2.53;;;1.60;;
51459;SDS011;37534;39.772;2.718;2023-07-13T10:29:46;3.75;;;1.80;;
51459;SDS011;37534;39.772;2.718;2023-07-13T10:32:25;4.60;;;2.63;;
51459;SDS011;37534;39.772;2.718;2023-07-13T10:34:51;6.13;;;2.15;;
51459;SDS011;37534;39.772;2.718;2023-07-13T10:38:00;3.83;;;2.42;;
51459;SDS011;37534;39.772;2.718;2023-07-13T10:41:15;3.97;;;2.10;;
51459;SDS011;37534;39.772;2.718;2023-07-13T10:43:26;3.95;;;2.03;;
51459;SDS011;37534;39.772;2.718;2023-07-13T10:45:55;6.55;;;2.08;;
51459;SDS011;37534;39.772;2.718;2023-07-13T10:48:22;5.68;;;2.13;;
51459;SDS011;37534;39.772;2.718;2023-07-13T10:50:49;3.35;;;1.77;;
51459;SDS011;37534;39.772;2.718;2023-07-13T10:53:21;3.97;;;2.55;;
51459;SDS011;37534;39.772;2.718;2023-07-13T10:55:55;7.78;;;2.45;;
51459;SDS011;37534;39.772;2.718;2023-07-13T10:58:38;7.18;;;2.28;;
51459;SDS011;37534;39.772;2.718;2023-07-13T11:03:32;3.90;;;2.08;;
51459;SDS011;37534;39.772;2.718;2023-07-13T11:08:59;5.28;;;2.67;;
51459;SDS011;37534;39.772;2.718;2023-07-13T11:11:43;4.85;;;2.20;;
51459;SDS011;37534;39.772;2.718;2023-07-13T11:16:54;4.85;;;2.22;;
51459;SDS011;37534;39.772;2.718;2023-07-13T11:24:47;4.10;;;2.00;;
51459;SDS011;37534;39.772;2.718;2023-07-13T11:27:22;9.82;;;2.28;;
51459;SDS011;37534;39.772;2.718;2023-07-13T11:33:10;10.07;;;2.92;;
51459;SDS011;37534;39.772;2.718;2023-07-13T11:36:04;6.53;;;2.45;;
51459;SDS011;37534;39.772;2.718;2023-07-13T11:38:39;12.05;;;2.25;;
51459;SDS011;37534;39.772;2.718;2023-07-13T11:41:10;6.28;;;2.72;;
51459;SDS011;37534;39.772;2.718;2023-07-13T11:43:41;7.47;;;3.25;;
51459;SDS011;37534;39.772;2.718;2023-07-13T11:46:20;5.85;;;3.08;;
51459;SDS011;37534;39.772;2.718;2023-07-13T11:48:51;4.75;;;2.92;;
51459;SDS011;37534;39.772;2.718;2023-07-13T11:53:53;5.95;;;2.60;;
51459;SDS011;37534;39.772;2.718;2023-07-13T11:56:22;5.20;;;2.45;;
51459;SDS011;37534;39.772;2.718;2023-07-13T11:58:54;3.72;;;2.30;;
51459;SDS011;37534;39.772;2.718;2023-07-13T12:01:22;10.95;;;2.55;;
51459;SDS011;37534;39.772;2.718;2023-07-13T12:03:57;7.97;;;2.83;;
51459;SDS011;37534;39.772;2.718;2023-07-13T12:08:58;4.25;;;2.65;;
51459;SDS011;37534;39.772;2.718;2023-07-13T12:11:25;9.70;;;3.20;;
51459;SDS011;37534;39.772;2.718;2023-07-13T12:13:52;9.20;;;2.60;;
51459;SDS011;37534;39.772;2.718;2023-07-13T12:16:22;5.75;;;2.28;;
51459;SDS011;37534;39.772;2.718;2023-07-13T12:18:52;7.95;;;2.60;;
51459;SDS011;37534;39.772;2.718;2023-07-13T12:21:19;8.52;;;2.75;;
51459;SDS011;37534;39.772;2.718;2023-07-13T12:23:48;5.55;;;2.65;;
51459;SDS011;37534;39.772;2.718;2023-07-13T12:26:14;9.60;;;3.08;;
51459;SDS011;37534;39.772;2.718;2023-07-13T12:28:46;5.68;;;2.28;;
51459;SDS011;37534;39.772;2.718;2023-07-13T12:34:03;12.90;;;3.03;;
51459;SDS011;37534;39.772;2.718;2023-07-13T12:36:37;3.15;;;2.38;;
51459;SDS011;37534;39.772;2.718;2023-07-13T12:41:41;5.55;;;2.88;;
51459;SDS011;37534;39.772;2.718;2023-07-13T12:44:12;4.35;;;1.85;;
51459;SDS011;37534;39.772;2.718;2023-07-13T12:46:50;9.40;;;2.40;;
51459;SDS011;37534;39.772;2.718;2023-07-13T12:49:18;6.72;;;2.70;;
51459;SDS011;37534;39.772;2.718;2023-07-13T12:51:50;5.45;;;2.75;;
51459;SDS011;37534;39.772;2.718;2023-07-13T12:54:17;7.00;;;2.50;;
51459;SDS011;37534;39.772;2.718;2023-07-13T12:56:44;4.10;;;2.45;;
51459;SDS011;37534;39.772;2.718;2023-07-13T12:59:18;5.37;;;2.70;;
51459;SDS011;37534;39.772;2.718;2023-07-13T13:01:48;4.25;;;1.98;;
51459;SDS011;37534;39.772;2.718;2023-07-13T13:04:15;5.22;;;1.83;;
51459;SDS011;37534;39.772;2.718;2023-07-13T13:06:41;5.30;;;2.70;;
51459;SDS011;37534;39.772;2.718;2023-07-13T13:09:12;3.90;;;1.83;;
51459;SDS011;37534;39.772;2.718;2023-07-13T13:11:38;4.55;;;2.47;;
51459;SDS011;37534;39.772;2.718;2023-07-13T13:14:05;9.77;;;2.47;;
51459;SDS011;37534;39.772;2.718;2023-07-13T13:16:33;4.43;;;1.85;;
51459;SDS011;37534;39.772;2.718;2023-07-13T13:19:45;4.90;;;2.35;;
51459;SDS011;37534;39.772;2.718;2023-07-13T13:21:49;5.63;;;2.42;;
51459;SDS011;37534;39.772;2.718;2023-07-13T13:24:19;9.57;;;3.00;;
51459;SDS011;37534;39.772;2.718;2023-07-13T13:26:47;5.07;;;2.13;;
51459;SDS011;37534;39.772;2.718;2023-07-13T13:29:21;4.70;;;2.35;;
51459;SDS011;37534;39.772;2.718;2023-07-13T13:31:52;9.27;;;2.78;;
51459;SDS011;37534;39.772;2.718;2023-07-13T13:34:19;6.75;;;2.33;;
51459;SDS011;37534;39.772;2.718;2023-07-13T13:36:46;3.22;;;1.73;;
51459;SDS011;37534;39.772;2.718;2023-07-13T13:39:22;3.55;;;2.58;;
51459;SDS011;37534;39.772;2.718;2023-07-13T13:41:50;5.00;;;2.60;;
51459;SDS011;37534;39.772;2.718;2023-07-13T13:44:17;9.05;;;2.47;;
51459;SDS011;37534;39.772;2.718;2023-07-13T13:46:44;3.45;;;2.13;;
51459;SDS011;37534;39.772;2.718;2023-07-13T13:49:16;2.75;;;1.98;;
51459;SDS011;37534;39.772;2.718;2023-07-13T13:51:44;4.82;;;2.60;;
51459;SDS011;37534;39.772;2.718;2023-07-13T13:54:14;4.65;;;2.45;;
51459;SDS011;37534;39.772;2.718;2023-07-13T13:56:42;4.95;;;2.33;;
51459;SDS011;37534;39.772;2.718;2023-07-13T13:59:08;3.42;;;2.05;;
51459;SDS011;37534;39.772;2.718;2023-07-13T14:01:34;7.28;;;2.60;;
51459;SDS011;37534;39.772;2.718;2023-07-13T14:04:00;6.82;;;2.47;;
51459;SDS011;37534;39.772;2.718;2023-07-13T14:06:26;5.75;;;2.15;;
51459;SDS011;37534;39.772;2.718;2023-07-13T14:08:53;7.22;;;2.30;;
51459;SDS011;37534;39.772;2.718;2023-07-13T14:11:20;4.18;;;2.08;;
51459;SDS011;37534;39.772;2.718;2023-07-13T14:13:50;6.72;;;2.90;;
51459;SDS011;37534;39.772;2.718;2023-07-13T14:16:19;8.45;;;2.47;;
51459;SDS011;37534;39.772;2.718;2023-07-13T14:18:46;6.97;;;2.38;;
51459;SDS011;37534;39.772;2.718;2023-07-13T14:21:19;8.60;;;2.40;;
51459;SDS011;37534;39.772;2.718;2023-07-13T14:23:46;4.47;;;2.30;;
51459;SDS011;37534;39.772;2.718;2023-07-13T14:26:18;4.60;;;2.50;;
51459;SDS011;37534;39.772;2.718;2023-07-13T14:28:56;6.32;;;2.65;;
51459;SDS011;37534;39.772;2.718;2023-07-13T14:31:23;9.88;;;2.05;;
51459;SDS011;37534;39.772;2.718;2023-07-13T14:33:54;6.03;;;2.70;;
51459;SDS011;37534;39.772;2.718;2023-07-13T14:38:54;5.60;;;2.22;;
51459;SDS011;37534;39.772;2.718;2023-07-13T14:41:21;4.32;;;1.92;;
51459;SDS011;37534;39.772;2.718;2023-07-13T14:43:47;4.35;;;2.20;;
51459;SDS011;37534;39.772;2.718;2023-07-13T14:46:18;3.72;;;2.28;;
51459;SDS011;37534;39.772;2.718;2023-07-13T14:48:59;3.95;;;1.85;;
51459;SDS011;37534;39.772;2.718;2023-07-13T14:51:45;8.45;;;2.33;;
51459;SDS011;37534;39.772;2.718;2023-07-13T14:54:10;3.33;;;1.75;;
51459;SDS011;37534;39.772;2.718;2023-07-13T14:56:36;5.22;;;2.45;;
51459;SDS011;37534;39.772;2.718;2023-07-13T14:59:02;3.03;;;2.08;;
51459;SDS011;37534;39.772;2.718;2023-07-13T15:01:33;4.63;;;2.28;;
51459;SDS011;37534;39.772;2.718;2023-07-13T15:04:00;11.05;;;3.00;;
51459;SDS011;37534;39.772;2.718;2023-07-13T15:06:26;5.40;;;2.55;;
51459;SDS011;37534;39.772;2.718;2023-07-13T15:08:52;4.40;;;2.55;;
51459;SDS011;37534;39.772;2.718;2023-07-13T15:11:17;6.47;;;2.63;;
51459;SDS011;37534;39.772;2.718;2023-07-13T15:13:43;6.32;;;2.75;;
51459;SDS011;37534;39.772;2.718;2023-07-13T15:16:15;7.10;;;2.30;;
51459;SDS011;37534;39.772;2.718;2023-07-13T15:18:48;7.55;;;2.33;;
51459;SDS011;37534;39.772;2.718;2023-07-13T15:21:21;3.63;;;1.90;;
51459;SDS011;37534;39.772;2.718;2023-07-13T15:23:49;9.82;;;2.40;;
51459;SDS011;37534;39.772;2.718;2023-07-13T15:26:16;9.80;;;2.63;;
51459;SDS011;37534;39.772;2.718;2023-07-13T15:28:44;4.32;;;2.03;;
51459;SDS011;37534;39.772;2.718;2023-07-13T15:31:21;5.18;;;2.47;;
51459;SDS011;37534;39.772;2.718;2023-07-13T15:33:49;11.55;;;2.70;;
51459;SDS011;37534;39.772;2.718;2023-07-13T15:36:16;6.45;;;2.17;;
51459;SDS011;37534;39.772;2.718;2023-07-13T15:38:44;4.75;;;2.55;;
51459;SDS011;37534;39.772;2.718;2023-07-13T15:41:15;5.47;;;2.28;;
51459;SDS011;37534;39.772;2.718;2023-07-13T15:43:43;10.77;;;2.42;;